Latest Weather Observations for Garden Island

IDW60801

Issued at 10:13 pm WST Friday 16 April 2021 (issued every 10 minutes, with the page automatically refreshed every 10 minutes)

About weather observations | Map of weather stations | Latest weather observations for WA | Other Formats
Station Details ID: 009256 Name: GARDEN ISLAND HSF Lat: -32.24 Lon: 115.68 Height: 6.0 m
Data from the previous 72 hours. | See also: Recent months at Garden Island
Date/Time
WST
Temp
°C
App
Temp
°C
Dew
Point
°C
Rel
Hum
%
Delta-T
°C
Wind Press
QNH
hPa
Press
MSL
hPa
Rain since
9am
mm
Dir  Spd
km/h
Gust
km/h
Spd
kts
Gust
kts
16/10:00pm 18.3 16.3 11.6 65 3.6 ESE 13 15 7 8 1026.5 1026.5 0.0
16/09:30pm 18.7 16.9 12.0 65 3.7 ESE 13 17 7 9 1026.4 1026.4 0.0
16/09:00pm 19.3 17.6 12.3 64 3.9 ESE 13 17 7 9 1026.3 1026.3 0.0
16/08:30pm 19.9 18.1 13.4 66 3.7 SE 15 17 8 9 1026.2 1026.2 0.0
16/08:00pm 20.3 18.6 13.7 66 3.8 SE 15 17 8 9 1026.1 1026.1 0.0
16/07:30pm 20.5 19.1 14.6 69 3.4 SSE 15 19 8 10 1025.8 1025.8 0.0
16/07:00pm 21.2 19.7 16.4 74 2.9 SSE 19 20 10 11 1025.7 1025.7 0.0
16/06:30pm 21.3 19.0 15.8 71 3.3 S 22 28 12 15 1025.5 1025.5 0.0
16/06:00pm 21.5 20.1 17.1 76 2.7 S 20 26 11 14 1025.1 1025.1 0.0
16/05:30pm 21.7 19.9 16.9 74 2.9 S 22 24 12 13 1024.9 1024.9 0.0
16/05:00pm 21.6 19.3 16.6 73 3.0 S 24 26 13 14 1024.7 1024.7 0.0
16/04:30pm 22.2 20.0 14.8 63 4.4 S 20 22 11 12 1024.7 1024.7 0.0
16/04:00pm 22.0 20.2 15.6 67 3.8 S 19 22 10 12 1024.7 1024.7 0.0
16/03:30pm 22.2 21.0 16.0 68 3.7 SSW 17 20 9 11 1024.7 1024.7 0.0
16/03:00pm 22.9 22.1 16.2 66 4.0 SSW 15 17 8 9 1024.6 1024.6 0.0
16/02:30pm 22.7 22.2 16.0 66 4.0 SSW 13 17 7 9 1024.6 1024.6 0.0
16/02:00pm 25.5 23.9 10.1 38 8.5 ESE 9 13 5 7 1024.6 1024.6 0.0
16/01:30pm 25.2 22.9 10.6 40 8.1 ESE 13 15 7 8 1024.8 1024.8 0.0
16/01:00pm 24.8 22.6 9.5 38 8.3 E 11 17 6 9 1025.2 1025.2 0.0
16/12:30pm 23.7 21.5 10.7 44 7.2 ENE 13 17 7 9 1025.7 1025.7 0.0
16/12:00pm 24.4 22.5 11.7 45 7.2 ENE 13 19 7 10 1025.9 1025.9 0.0
16/11:30am 23.0 21.1 11.7 49 6.4 ENE 13 20 7 11 1026.5 1026.5 0.0
16/11:00am 22.2 19.6 11.9 52 5.8 ENE 17 22 9 12 1026.7 1026.7 0.0
16/10:30am 22.0 18.9 12.3 54 5.5 ENE 20 24 11 13 1026.9 1026.9 0.0
16/10:00am 20.0 17.5 12.3 61 4.3 ENE 17 22 9 12 1027.3 1027.3 0.0
16/09:30am 18.9 16.7 12.2 65 3.7 E 15 19 8 10 1027.4 1027.4 0.0
16/09:00am 18.0 16.2 12.2 69 3.2 ENE 13 20 7 11 1027.5 1027.5 0.0
16/08:30am 17.1 15.7 12.2 73 2.7 E 11 15 6 8 1027.5 1027.5 0.0
16/08:00am 17.0 15.3 12.3 74 2.6 ESE 13 17 7 9 1027.4 1027.4 0.0
16/07:30am 16.0 14.2 12.0 77 2.2 E 13 17 7 9 1027.0 1027.0 0.0
16/07:00am 15.7 13.9 12.1 79 2.0 E 13 19 7 10 1026.8 1026.8 0.0
16/06:30am 15.1 12.8 11.9 81 1.7 E 15 19 8 10 1026.5 1026.5 0.0
16/06:00am 14.9 13.0 11.9 82 1.6 E 13 19 7 10 1026.3 1026.3 0.0
16/05:30am 14.7 12.3 11.5 81 1.7 E 15 20 8 11 1026.0 1026.0 0.0
16/05:00am 14.6 12.6 11.4 81 1.7 E 13 17 7 9 1026.1 1026.1 0.0
16/04:30am 14.2 12.4 11.0 81 1.7 E 11 15 6 8 1025.7 1025.7 0.0
16/04:00am 14.5 12.7 10.7 78 2.0 ESE 11 15 6 8 1025.5 1025.5 0.0
16/03:30am 15.1 12.9 10.9 76 2.2 ESE 13 20 7 11 1025.6 1025.6 0.0
16/03:00am 15.6 12.8 11.2 75 2.3 ESE 17 24 9 13 1025.4 1025.4 0.0
16/02:30am 15.8 13.5 11.8 77 2.2 SE 15 20 8 11 1025.8 1025.8 0.0
16/02:00am 16.2 14.8 12.2 77 2.2 ESE 11 15 6 8 1025.8 1025.8 0.0
16/01:30am 15.5 14.3 11.7 78 2.1 E 9 13 5 7 1025.8 1025.8 0.0
16/01:00am 15.9 14.4 11.9 77 2.2 ESE 11 13 6 7 1025.9 1025.9 0.0
16/12:30am 16.6 15.3 12.4 76 2.3 ESE 11 15 6 8 1026.0 1026.0 0.0
16/12:00am 16.6 15.2 12.2 75 2.4 ESE 11 15 6 8 1026.2 1026.2 0.0
 
Date/Time
WST
Temp
°C
App
Temp
°C
Dew
Point
°C
Rel
Hum
%
Delta-T
°C
Wind Press
QNH
hPa
Press
MSL
hPa
Rain since
9am
mm
Dir  Spd
km/h
Gust
km/h
Spd
kts
Gust
kts
15/11:30pm 16.9 15.5 12.2 74 2.6 ESE 11 15 6 8 1026.5 1026.5 0.0
15/11:00pm 17.1 15.3 12.2 73 2.7 SE 13 15 7 8 1026.6 1026.6 0.0
15/10:30pm 17.4 15.5 11.7 69 3.1 SE 13 17 7 9 1026.6 1026.6 0.0
15/10:00pm 18.0 16.1 12.9 72 2.8 SSE 15 17 8 9 1026.7 1026.7 0.0
15/09:30pm 18.4 15.9 12.4 68 3.3 SSE 17 19 9 10 1026.4 1026.4 0.0
15/09:00pm 19.4 17.1 13.1 67 3.5 SSE 17 19 9 10 1026.3 1026.3 0.0
15/08:30pm 19.9 17.4 13.6 67 3.6 SSE 19 22 10 12 1026.1 1026.1 0.0
15/08:00pm 20.3 17.8 14.2 68 3.5 SSE 20 24 11 13 1025.7 1025.7 0.0
15/07:30pm 20.7 18.4 16.7 78 2.4 S 24 28 13 15 1025.5 1025.5 0.0
15/07:00pm 20.7 16.9 16.7 78 2.4 SSW 32 35 17 19 1025.3 1025.3 0.0
15/06:30pm 20.6 16.5 16.0 75 2.8 SSW 32 35 17 19 1025.2 1025.2 0.0
15/06:00pm 20.4 16.1 15.4 73 2.9 SSW 32 35 17 19 1024.8 1024.8 0.0
15/05:30pm 20.6 16.5 16.0 75 2.8 SSW 32 37 17 20 1024.7 1024.7 0.0
15/05:00pm 20.4 16.1 14.5 69 3.4 SSW 30 33 16 18 1024.6 1024.6 0.0
15/04:30pm 20.5 16.1 15.1 71 3.2 SSW 32 33 17 18 1024.5 1024.5 0.0
15/04:00pm 20.7 16.2 13.9 65 3.9 SSW 30 33 16 18 1024.5 1024.5 0.0
15/03:30pm 21.5 18.7 14.2 63 4.3 SSW 22 28 12 15 1024.5 1024.5 0.0
15/03:00pm 21.3 18.3 12.7 58 4.9 SSW 20 26 11 14 1024.6 1024.6 0.0
15/02:30pm 21.2 18.2 11.8 55 5.2 SW 19 22 10 12 1024.7 1024.7 0.0
15/02:00pm 21.2 18.5 11.8 55 5.2 SW 17 20 9 11 1024.6 1024.6 0.0
15/01:30pm 21.1 18.2 12.3 57 5.0 SW 19 22 10 12 1025.0 1025.0 0.0
15/01:00pm 21.1 18.5 12.0 56 5.1 SW 17 20 9 11 1025.3 1025.3 0.0
15/12:30pm 20.9 18.7 10.7 52 5.6 SW 13 17 7 9 1025.8 1025.8 0.0
15/12:00pm 21.5 20.3 12.9 58 4.9 SSW 11 15 6 8 1026.2 1026.2 0.0
15/11:30am 21.0 20.0 11.1 53 5.4 SSE 7 11 4 6 1026.6 1026.6 0.0
15/11:00am 20.8 19.5 11.4 55 5.2 SE 9 13 5 7 1027.0 1027.0 0.0
15/10:30am 20.5 18.9 11.7 57 4.9 ESE 11 15 6 8 1027.2 1027.2 0.0
15/10:00am 19.5 17.7 12.0 62 4.1 ESE 13 17 7 9 1027.4 1027.4 0.0
15/09:30am 18.1 16.2 11.7 66 3.5 ESE 13 15 7 8 1027.6 1027.6 0.0
15/09:00am 17.8 16.4 12.3 70 3.0 SE 11 13 6 7 1027.8 1027.8 0.0
15/08:30am 16.6 15.4 11.7 73 2.7 ESE 9 13 5 7 1027.8 1027.8 0.0
15/08:00am 16.0 14.6 12.2 78 2.1 SE 11 13 6 7 1027.5 1027.5 0.0
15/07:30am 15.1 13.7 12.1 82 1.6 ESE 11 15 6 8 1027.2 1027.2 0.0
15/07:00am 14.2 12.3 11.7 85 1.3 SE 13 15 7 8 1027.2 1027.2 0.0
15/06:30am 13.9 12.2 11.2 84 1.4 SE 11 13 6 7 1027.0 1027.0 0.0
15/06:00am 14.9 13.1 12.2 84 1.5 SE 13 19 7 10 1026.7 1026.7 0.0
15/05:30am 15.2 13.0 12.0 81 1.7 E 15 20 8 11 1026.3 1026.3 0.0
15/05:00am 14.9 12.9 11.5 80 1.8 E 13 19 7 10 1026.3 1026.3 0.0
15/04:30am 14.8 13.1 11.2 79 1.9 E 11 19 6 10 1026.2 1026.2 0.0
15/04:00am 14.9 12.8 11.1 78 2.0 ESE 13 17 7 9 1026.1 1026.1 0.0
15/03:30am 15.1 13.1 11.5 79 1.9 ESE 13 17 7 9 1026.2 1026.2 0.0
15/03:00am 15.6 13.2 11.4 76 2.2 SE 15 20 8 11 1026.4 1026.4 0.0
15/02:30am 15.7 13.0 11.7 77 2.2 SE 17 20 9 11 1026.5 1026.5 0.0
15/02:00am 16.3 13.1 11.9 75 2.4 SE 20 24 11 13 1026.6 1026.6 0.0
15/01:30am 16.1 13.1 12.1 77 2.2 SE 19 20 10 11 1026.6 1026.6 0.0
15/01:00am 16.1 13.4 12.8 81 1.8 SSE 19 22 10 12 1026.5 1026.5 0.0
15/12:30am 16.2 13.6 13.3 83 1.6 SE 19 20 10 11 1026.4 1026.4 0.0
15/12:00am 16.5 14.0 14.0 85 1.4 SSE 20 24 11 13 1026.5 1026.5 0.0
 
Date/Time
WST
Temp
°C
App
Temp
°C
Dew
Point
°C
Rel
Hum
%
Delta-T
°C
Wind Press
QNH
hPa
Press
MSL
hPa
Rain since
9am
mm
Dir  Spd
km/h
Gust
km/h
Spd
kts
Gust
kts
14/11:30pm 16.7 14.4 14.0 84 1.5 SSE 19 22 10 12 1026.6 1026.6 0.0
14/11:00pm 16.9 14.6 14.0 83 1.6 SSE 19 22 10 12 1026.6 1026.6 0.0
14/10:30pm 17.2 15.0 14.3 83 1.7 SSE 19 20 10 11 1026.6 1026.6 0.0
14/10:00pm 17.4 15.2 14.5 83 1.7 SE 19 20 10 11 1026.6 1026.6 0.0
14/09:30pm 18.0 15.8 14.5 80 2.0 SSE 19 22 10 12 1026.4 1026.4 0.0
14/09:00pm 18.8 14.9 14.3 75 2.6 S 28 32 15 17 1026.1 1026.1 0.0
14/08:30pm 19.0 15.6 14.7 76 2.5 S 26 32 14 17 1026.1 1026.1 0.0
14/08:00pm 19.2 15.2 14.2 73 2.9 S 28 33 15 18 1026.0 1026.0 0.0
14/07:30pm 19.2 15.2 14.0 72 3.0 S 28 35 15 19 1025.8 1025.8 0.0
14/07:00pm 19.4 15.2 14.6 74 2.8 S 30 33 16 18 1025.5 1025.5 0.0
14/06:30pm 19.3 15.0 14.3 73 2.9 SSW 30 35 16 19 1025.4 1025.4 0.0
14/06:00pm 19.3 14.8 13.7 70 3.2 SSW 30 35 16 19 1025.1 1025.1 0.0
14/05:30pm 19.3 15.2 13.9 71 3.1 SSW 28 33 15 18 1024.9 1024.9 0.0
14/05:00pm 19.5 15.0 13.9 70 3.2 SSW 30 35 16 19 1024.7 1024.7 0.0
14/04:30pm 19.6 14.6 13.3 67 3.6 SSW 32 37 17 20 1024.6 1024.6 0.0
14/04:00pm 20.0 16.2 13.5 66 3.7 SSW 26 32 14 17 1024.6 1024.6 0.0
14/03:30pm 20.0 15.6 13.0 64 4.0 SSW 28 33 15 18 1024.7 1024.7 0.0
14/03:00pm 20.2 16.2 12.9 63 4.1 SSW 26 32 14 17 1024.6 1024.6 0.0
14/02:30pm 20.2 17.2 12.4 61 4.4 SW 20 26 11 14 1024.6 1024.6 0.0
14/02:00pm 20.3 17.3 11.8 58 4.7 SW 19 22 10 12 1024.7 1024.7 0.0
14/01:30pm 20.1 17.4 10.2 53 5.3 SW 15 19 8 10 1024.9 1024.9 0.0
14/01:00pm 20.6 18.5 11.2 55 5.1 SW 13 17 7 9 1025.2 1025.2 0.0
14/12:30pm 20.2 18.1 9.7 51 5.6 W 11 13 6 7 1025.5 1025.5 0.0
14/12:00pm 20.2 18.4 9.5 50 5.7 WSW 9 11 5 6 1025.9 1025.9 0.0
14/11:30am 19.4 17.3 8.1 48 5.8 SSE 9 13 5 7 1026.2 1026.2 0.0
14/11:00am 20.0 18.5 9.0 49 5.8 ENE 7 11 4 6 1026.5 1026.5 0.0
14/10:30am 19.8 18.1 10.0 53 5.3 ENE 9 13 5 7 1026.7 1026.7 0.0
14/10:00am 19.3 17.2 9.8 54 5.0 ENE 11 17 6 9 1027.1 1027.1 0.0
14/09:30am 18.2 16.3 10.6 61 4.1 NE 11 15 6 8 1027.5 1027.5 0.0
14/09:00am 17.5 16.2 11.1 66 3.4 NE 9 13 5 7 1027.3 1027.3 0.0
14/08:30am 16.7 14.6 11.2 70 3.0 NE 13 17 7 9 1027.0 1027.0 0.0
14/08:00am 15.9 14.3 11.5 75 2.4 ENE 11 15 6 8 1026.8 1026.8 0.0
14/07:30am 14.4 12.7 11.2 81 1.7 ENE 11 13 6 7 1026.4 1026.4 0.0
14/07:00am 12.9 11.0 10.4 85 1.3 E 11 13 6 7 1026.2 1026.2 0.0
14/06:30am 12.4 10.0 10.0 85 1.2 E 13 15 7 8 1026.0 1026.0 0.0
14/06:00am 12.6 10.2 10.0 84 1.3 ENE 13 15 7 8 1025.9 1025.9 0.0
14/05:30am 12.7 10.7 10.1 84 1.3 E 11 15 6 8 1026.0 1026.0 0.0
14/05:00am 13.0 11.0 10.0 82 1.5 ENE 11 15 6 8 1025.7 1025.7 0.0
14/04:30am 12.4 10.3 9.8 84 1.3 E 11 15 6 8 1025.6 1025.6 0.0
14/04:00am 12.7 10.6 9.7 82 1.5 E 11 13 6 7 1025.4 1025.4 0.0
14/03:30am 13.5 11.1 9.9 79 1.9 ENE 13 17 7 9 1025.4 1025.4 0.0
14/03:00am 14.1 11.4 10.3 78 2.0 E 15 20 8 11 1025.3 1025.3 0.0
14/02:30am 13.9 11.6 10.3 79 1.9 E 13 17 7 9 1025.3 1025.3 0.0
14/02:00am 14.2 11.9 10.4 78 2.0 E 13 19 7 10 1025.3 1025.3 0.0
14/01:30am 14.6 11.6 10.6 77 2.1 ESE 17 20 9 11 1025.2 1025.2 0.0
14/01:00am 14.6 11.7 9.8 73 2.5 ESE 15 19 8 10 1025.2 1025.2 0.0
14/12:30am 15.2 12.1 10.2 72 2.6 SE 17 20 9 11 1025.2 1025.2 0.0
14/12:00am 15.6 12.2 10.6 72 2.6 SE 19 22 10 12 1025.1 1025.1 0.0
 
Date/Time
WST
Temp
°C
App
Temp
°C
Dew
Point
°C
Rel
Hum
%
Delta-T
°C
Wind Press
QNH
hPa
Press
MSL
hPa
Rain since
9am
mm
Dir  Spd
km/h
Gust
km/h
Spd
kts
Gust
kts
13/11:30pm 16.0 12.5 11.0 72 2.7 SE 20 24 11 13 1025.1 1025.1 0.0
13/11:00pm 16.1 12.6 10.8 71 2.8 SE 20 26 11 14 1025.1 1025.1 0.0
13/10:30pm 16.5 12.3 11.0 70 2.9 SSE 24 30 13 16 1025.2 1025.2 0.0

Other formats

Comma delimited format used in spreadsheet applications
http://www.bom.gov.au/fwo/IDW60801/IDW60801.95607.axf

JavaScript Object Notation format (JSON) in row-major order
http://www.bom.gov.au/fwo/IDW60801/IDW60801.95607.json

Data quality

Most of these data are generated automatically and are frequently updated. Quality checks on data are not normally performed. It is possible for incorrect values to appear. Refer to information at About Latest Weather Observations and please check the disclaimer before using these data.